sensor_id;sensor_type;location;lat;lon;timestamp;temperature;humidity
18225;DHT22;9237;48.590;8.854;2023-04-03T00:01:35;3.20;99.90
18225;DHT22;9237;48.590;8.854;2023-04-03T00:04:03;3.10;99.90
18225;DHT22;9237;48.590;8.854;2023-04-03T00:06:32;3.10;99.90
18225;DHT22;9237;48.590;8.854;2023-04-03T00:08:59;3.10;99.90
18225;DHT22;9237;48.590;8.854;2023-04-03T00:11:25;3.10;99.90
18225;DHT22;9237;48.590;8.854;2023-04-03T00:13:52;3.10;99.90
18225;DHT22;9237;48.590;8.854;2023-04-03T00:16:19;3.10;99.90
18225;DHT22;9237;48.590;8.854;2023-04-03T00:18:46;3.10;99.90
18225;DHT22;9237;48.590;8.854;2023-04-03T00:21:13;3.10;99.90
18225;DHT22;9237;48.590;8.854;2023-04-03T00:23:42;3.10;99.90
18225;DHT22;9237;48.590;8.854;2023-04-03T00:26:09;3.10;99.90
18225;DHT22;9237;48.590;8.854;2023-04-03T00:28:36;3.20;99.90
18225;DHT22;9237;48.590;8.854;2023-04-03T00:31:03;3.10;99.90
18225;DHT22;9237;48.590;8.854;2023-04-03T00:33:30;3.10;99.90
18225;DHT22;9237;48.590;8.854;2023-04-03T00:35:57;3.10;99.90
18225;DHT22;9237;48.590;8.854;2023-04-03T00:38:24;3.10;99.90
18225;DHT22;9237;48.590;8.854;2023-04-03T00:40:52;3.00;99.90
18225;DHT22;9237;48.590;8.854;2023-04-03T00:43:21;3.00;99.90
18225;DHT22;9237;48.590;8.854;2023-04-03T00:45:49;3.00;99.90
18225;DHT22;9237;48.590;8.854;2023-04-03T00:48:20;3.00;99.90
18225;DHT22;9237;48.590;8.854;2023-04-03T00:50:47;3.00;99.90
18225;DHT22;9237;48.590;8.854;2023-04-03T00:53:18;3.00;99.90
18225;DHT22;9237;48.590;8.854;2023-04-03T00:55:47;2.00;99.90
18225;DHT22;9237;48.590;8.854;2023-04-03T00:58:18;3.00;99.90
18225;DHT22;9237;48.590;8.854;2023-04-03T01:00:50;3.00;99.90
18225;DHT22;9237;48.590;8.854;2023-04-03T01:03:19;3.40;99.90
18225;DHT22;9237;48.590;8.854;2023-04-03T01:05:45;3.00;99.90
18225;DHT22;9237;48.590;8.854;2023-04-03T01:08:12;3.00;99.90
18225;DHT22;9237;48.590;8.854;2023-04-03T01:10:39;3.00;99.90
18225;DHT22;9237;48.590;8.854;2023-04-03T01:13:21;3.00;99.90
18225;DHT22;9237;48.590;8.854;2023-04-03T01:15:48;3.00;99.90
18225;DHT22;9237;48.590;8.854;2023-04-03T01:18:15;2.90;99.90
18225;DHT22;9237;48.590;8.854;2023-04-03T01:21:00;2.90;99.90
18225;DHT22;9237;48.590;8.854;2023-04-03T01:23:50;2.90;99.90
18225;DHT22;9237;48.590;8.854;2023-04-03T01:26:18;2.90;99.90
18225;DHT22;9237;48.590;8.854;2023-04-03T01:28:48;2.90;99.90
18225;DHT22;9237;48.590;8.854;2023-04-03T01:31:20;2.90;99.90
18225;DHT22;9237;48.590;8.854;2023-04-03T01:33:49;2.90;99.90
18225;DHT22;9237;48.590;8.854;2023-04-03T01:36:18;3.00;99.90
18225;DHT22;9237;48.590;8.854;2023-04-03T01:38:46;2.90;99.90
18225;DHT22;9237;48.590;8.854;2023-04-03T01:41:12;2.90;99.90
18225;DHT22;9237;48.590;8.854;2023-04-03T01:43:39;2.90;99.90
18225;DHT22;9237;48.590;8.854;2023-04-03T01:46:06;2.90;99.90
18225;DHT22;9237;48.590;8.854;2023-04-03T01:48:33;2.90;99.90
18225;DHT22;9237;48.590;8.854;2023-04-03T01:51:01;2.90;99.90
18225;DHT22;9237;48.590;8.854;2023-04-03T01:53:28;2.80;99.90
18225;DHT22;9237;48.590;8.854;2023-04-03T01:55:55;2.80;99.90
18225;DHT22;9237;48.590;8.854;2023-04-03T01:58:22;2.90;99.90
18225;DHT22;9237;48.590;8.854;2023-04-03T02:00:49;2.80;99.90
18225;DHT22;9237;48.590;8.854;2023-04-03T02:03:16;2.80;99.90
18225;DHT22;9237;48.590;8.854;2023-04-03T02:05:42;2.80;99.90
18225;DHT22;9237;48.590;8.854;2023-04-03T02:08:11;2.70;99.90
18225;DHT22;9237;48.590;8.854;2023-04-03T02:10:38;2.70;99.90
18225;DHT22;9237;48.590;8.854;2023-04-03T02:13:05;2.70;99.90
18225;DHT22;9237;48.590;8.854;2023-04-03T02:15:32;2.70;99.90
18225;DHT22;9237;48.590;8.854;2023-04-03T02:17:58;2.70;99.90
18225;DHT22;9237;48.590;8.854;2023-04-03T02:20:25;2.70;99.90
18225;DHT22;9237;48.590;8.854;2023-04-03T02:22:52;2.70;99.90
18225;DHT22;9237;48.590;8.854;2023-04-03T02:25:20;2.70;99.90
18225;DHT22;9237;48.590;8.854;2023-04-03T02:27:47;2.70;99.90
18225;DHT22;9237;48.590;8.854;2023-04-03T02:30:14;2.70;99.90
18225;DHT22;9237;48.590;8.854;2023-04-03T02:32:41;2.70;99.90
18225;DHT22;9237;48.590;8.854;2023-04-03T02:35:08;2.70;99.90
18225;DHT22;9237;48.590;8.854;2023-04-03T02:37:35;2.70;99.90
18225;DHT22;9237;48.590;8.854;2023-04-03T02:40:03;2.60;99.90
18225;DHT22;9237;48.590;8.854;2023-04-03T02:42:32;2.60;99.90
18225;DHT22;9237;48.590;8.854;2023-04-03T02:44:58;2.60;99.90
18225;DHT22;9237;48.590;8.854;2023-04-03T02:47:26;2.60;99.90
18225;DHT22;9237;48.590;8.854;2023-04-03T02:49:53;2.50;99.90
18225;DHT22;9237;48.590;8.854;2023-04-03T02:52:20;2.50;99.90
18225;DHT22;9237;48.590;8.854;2023-04-03T02:54:47;2.40;99.90
18225;DHT22;9237;48.590;8.854;2023-04-03T02:57:13;2.50;99.90
18225;DHT22;9237;48.590;8.854;2023-04-03T02:59:42;2.40;99.90
18225;DHT22;9237;48.590;8.854;2023-04-03T03:02:09;2.40;99.90
18225;DHT22;9237;48.590;8.854;2023-04-03T03:04:36;2.40;99.90
18225;DHT22;9237;48.590;8.854;2023-04-03T03:07:03;2.30;99.90
18225;DHT22;9237;48.590;8.854;2023-04-03T03:09:30;2.30;99.90
18225;DHT22;9237;48.590;8.854;2023-04-03T03:11:57;2.30;99.90
18225;DHT22;9237;48.590;8.854;2023-04-03T03:14:24;2.30;99.90
18225;DHT22;9237;48.590;8.854;2023-04-03T03:16:52;2.20;99.90
18225;DHT22;9237;48.590;8.854;2023-04-03T03:19:19;2.30;99.90
18225;DHT22;9237;48.590;8.854;2023-04-03T03:21:45;2.30;99.90
18225;DHT22;9237;48.590;8.854;2023-04-03T03:24:12;2.30;99.90
18225;DHT22;9237;48.590;8.854;2023-04-03T03:26:41;2.20;99.90
18225;DHT22;9237;48.590;8.854;2023-04-03T03:29:08;2.30;99.90
18225;DHT22;9237;48.590;8.854;2023-04-03T03:31:35;2.20;99.90
18225;DHT22;9237;48.590;8.854;2023-04-03T03:34:03;2.30;99.90
18225;DHT22;9237;48.590;8.854;2023-04-03T03:36:30;2.30;99.90
18225;DHT22;9237;48.590;8.854;2023-04-03T03:38:57;2.30;99.90
18225;DHT22;9237;48.590;8.854;2023-04-03T03:41:24;2.30;99.90
18225;DHT22;9237;48.590;8.854;2023-04-03T03:43:50;2.30;99.90
18225;DHT22;9237;48.590;8.854;2023-04-03T03:46:17;2.20;99.90
18225;DHT22;9237;48.590;8.854;2023-04-03T03:48:44;2.50;99.90
18225;DHT22;9237;48.590;8.854;2023-04-03T03:51:12;2.30;99.90
18225;DHT22;9237;48.590;8.854;2023-04-03T03:53:39;2.30;99.90
18225;DHT22;9237;48.590;8.854;2023-04-03T03:56:06;2.30;99.90
18225;DHT22;9237;48.590;8.854;2023-04-03T03:58:33;2.40;99.90
18225;DHT22;9237;48.590;8.854;2023-04-03T04:01:01;2.40;99.90
18225;DHT22;9237;48.590;8.854;2023-04-03T04:03:28;2.40;99.90
18225;DHT22;9237;48.590;8.854;2023-04-03T04:05:55;2.40;99.90
18225;DHT22;9237;48.590;8.854;2023-04-03T04:08:23;2.40;99.90
18225;DHT22;9237;48.590;8.854;2023-04-03T04:10:50;2.40;99.90
18225;DHT22;9237;48.590;8.854;2023-04-03T04:13:17;2.40;99.90
18225;DHT22;9237;48.590;8.854;2023-04-03T04:15:44;2.40;99.90
18225;DHT22;9237;48.590;8.854;2023-04-03T04:18:11;2.40;99.90
18225;DHT22;9237;48.590;8.854;2023-04-03T04:20:38;2.40;99.90
18225;DHT22;9237;48.590;8.854;2023-04-03T04:23:04;2.40;99.90
18225;DHT22;9237;48.590;8.854;2023-04-03T04:25:33;2.40;99.90
18225;DHT22;9237;48.590;8.854;2023-04-03T04:27:59;2.40;99.90
18225;DHT22;9237;48.590;8.854;2023-04-03T04:30:26;2.40;99.90
18225;DHT22;9237;48.590;8.854;2023-04-03T04:32:53;2.40;99.90
18225;DHT22;9237;48.590;8.854;2023-04-03T04:35:20;2.40;99.90
18225;DHT22;9237;48.590;8.854;2023-04-03T04:37:46;2.40;99.90
18225;DHT22;9237;48.590;8.854;2023-04-03T04:40:13;2.40;99.90
18225;DHT22;9237;48.590;8.854;2023-04-03T04:42:42;2.40;99.90
18225;DHT22;9237;48.590;8.854;2023-04-03T04:45:09;2.40;99.90
18225;DHT22;9237;48.590;8.854;2023-04-03T04:47:49;2.40;99.90
18225;DHT22;9237;48.590;8.854;2023-04-03T04:50:17;2.40;99.90
18225;DHT22;9237;48.590;8.854;2023-04-03T04:52:45;2.40;99.90
18225;DHT22;9237;48.590;8.854;2023-04-03T04:55:12;2.40;99.90
18225;DHT22;9237;48.590;8.854;2023-04-03T04:57:38;2.40;99.90
18225;DHT22;9237;48.590;8.854;2023-04-03T05:00:08;2.40;99.90
18225;DHT22;9237;48.590;8.854;2023-04-03T05:02:35;2.40;99.90
18225;DHT22;9237;48.590;8.854;2023-04-03T05:05:02;2.40;99.90
18225;DHT22;9237;48.590;8.854;2023-04-03T05:07:29;2.40;99.90
18225;DHT22;9237;48.590;8.854;2023-04-03T05:09:56;2.40;99.90
18225;DHT22;9237;48.590;8.854;2023-04-03T05:12:22;2.40;99.90
18225;DHT22;9237;48.590;8.854;2023-04-03T05:14:49;2.40;99.90
18225;DHT22;9237;48.590;8.854;2023-04-03T05:17:17;2.50;99.90
18225;DHT22;9237;48.590;8.854;2023-04-03T05:19:44;2.50;99.90
18225;DHT22;9237;48.590;8.854;2023-04-03T05:22:11;2.50;99.90
18225;DHT22;9237;48.590;8.854;2023-04-03T05:24:38;2.50;99.90
18225;DHT22;9237;48.590;8.854;2023-04-03T05:27:04;2.50;99.90
18225;DHT22;9237;48.590;8.854;2023-04-03T05:29:31;2.50;99.90
18225;DHT22;9237;48.590;8.854;2023-04-03T05:31:58;2.60;99.90
18225;DHT22;9237;48.590;8.854;2023-04-03T05:34:26;2.60;99.90
18225;DHT22;9237;48.590;8.854;2023-04-03T05:36:53;2.60;99.90
18225;DHT22;9237;48.590;8.854;2023-04-03T05:39:20;2.60;99.90
18225;DHT22;9237;48.590;8.854;2023-04-03T05:41:48;2.60;99.90
18225;DHT22;9237;48.590;8.854;2023-04-03T05:44:15;2.70;99.90
18225;DHT22;9237;48.590;8.854;2023-04-03T05:46:42;2.70;99.90
18225;DHT22;9237;48.590;8.854;2023-04-03T05:49:08;2.80;99.90
18225;DHT22;9237;48.590;8.854;2023-04-03T05:51:38;2.80;99.90
18225;DHT22;9237;48.590;8.854;2023-04-03T05:54:09;3.00;99.90
18225;DHT22;9237;48.590;8.854;2023-04-03T05:56:36;3.10;99.90
18225;DHT22;9237;48.590;8.854;2023-04-03T05:59:03;3.00;99.90
18225;DHT22;9237;48.590;8.854;2023-04-03T06:01:30;3.00;99.90
18225;DHT22;9237;48.590;8.854;2023-04-03T06:03:56;3.00;99.90
18225;DHT22;9237;48.590;8.854;2023-04-03T06:06:24;3.10;99.90
18225;DHT22;9237;48.590;8.854;2023-04-03T06:08:52;3.00;99.90
18225;DHT22;9237;48.590;8.854;2023-04-03T06:11:18;3.10;99.90
18225;DHT22;9237;48.590;8.854;2023-04-03T06:13:46;3.00;99.90
18225;DHT22;9237;48.590;8.854;2023-04-03T06:16:14;3.10;99.90
18225;DHT22;9237;48.590;8.854;2023-04-03T06:18:41;3.10;99.90
18225;DHT22;9237;48.590;8.854;2023-04-03T06:21:08;3.30;99.90
18225;DHT22;9237;48.590;8.854;2023-04-03T06:23:35;3.50;99.90
18225;DHT22;9237;48.590;8.854;2023-04-03T06:26:03;3.50;99.90
18225;DHT22;9237;48.590;8.854;2023-04-03T06:28:31;3.30;99.90
18225;DHT22;9237;48.590;8.854;2023-04-03T06:30:57;3.40;99.90
18225;DHT22;9237;48.590;8.854;2023-04-03T06:33:24;3.40;99.90
18225;DHT22;9237;48.590;8.854;2023-04-03T06:35:56;3.40;99.90
18225;DHT22;9237;48.590;8.854;2023-04-03T06:38:23;3.50;99.90
18225;DHT22;9237;48.590;8.854;2023-04-03T06:40:50;3.60;99.90
18225;DHT22;9237;48.590;8.854;2023-04-03T06:43:19;3.60;99.90
18225;DHT22;9237;48.590;8.854;2023-04-03T06:45:47;3.60;99.90
18225;DHT22;9237;48.590;8.854;2023-04-03T06:48:13;3.60;99.90
18225;DHT22;9237;48.590;8.854;2023-04-03T06:50:40;4.20;99.90
18225;DHT22;9237;48.590;8.854;2023-04-03T06:53:07;3.50;99.90
18225;DHT22;9237;48.590;8.854;2023-04-03T06:55:34;3.50;99.90
18225;DHT22;9237;48.590;8.854;2023-04-03T06:58:02;3.50;99.90
18225;DHT22;9237;48.590;8.854;2023-04-03T07:00:31;3.60;99.90
18225;DHT22;9237;48.590;8.854;2023-04-03T07:02:58;3.50;99.90
18225;DHT22;9237;48.590;8.854;2023-04-03T07:05:24;3.60;99.90
18225;DHT22;9237;48.590;8.854;2023-04-03T07:07:52;3.60;99.90
18225;DHT22;9237;48.590;8.854;2023-04-03T07:10:19;3.80;99.90
18225;DHT22;9237;48.590;8.854;2023-04-03T07:12:46;3.70;99.90
18225;DHT22;9237;48.590;8.854;2023-04-03T07:15:12;3.70;99.90
18225;DHT22;9237;48.590;8.854;2023-04-03T07:17:41;3.60;99.90
18225;DHT22;9237;48.590;8.854;2023-04-03T07:20:09;3.70;99.90
18225;DHT22;9237;48.590;8.854;2023-04-03T07:22:36;3.80;99.90
18225;DHT22;9237;48.590;8.854;2023-04-03T07:25:03;3.90;99.90
18225;DHT22;9237;48.590;8.854;2023-04-03T07:27:32;4.10;99.90
18225;DHT22;9237;48.590;8.854;2023-04-03T07:29:59;4.10;99.90
18225;DHT22;9237;48.590;8.854;2023-04-03T07:32:26;4.10;99.90
18225;DHT22;9237;48.590;8.854;2023-04-03T07:34:54;4.40;99.90
18225;DHT22;9237;48.590;8.854;2023-04-03T07:37:21;4.70;99.90
18225;DHT22;9237;48.590;8.854;2023-04-03T07:39:48;4.90;99.90
18225;DHT22;9237;48.590;8.854;2023-04-03T07:42:15;4.60;99.90
18225;DHT22;9237;48.590;8.854;2023-04-03T07:44:42;4.70;99.90
18225;DHT22;9237;48.590;8.854;2023-04-03T07:47:08;4.80;99.90
18225;DHT22;9237;48.590;8.854;2023-04-03T07:49:35;4.80;99.90
18225;DHT22;9237;48.590;8.854;2023-04-03T07:52:07;4.70;99.90
18225;DHT22;9237;48.590;8.854;2023-04-03T07:54:34;5.00;99.90
18225;DHT22;9237;48.590;8.854;2023-04-03T07:57:01;4.80;99.90
18225;DHT22;9237;48.590;8.854;2023-04-03T07:59:28;4.90;99.90
18225;DHT22;9237;48.590;8.854;2023-04-03T08:01:55;4.90;99.90
18225;DHT22;9237;48.590;8.854;2023-04-03T08:04:22;4.70;99.90
18225;DHT22;9237;48.590;8.854;2023-04-03T08:06:49;5.30;99.90
18225;DHT22;9237;48.590;8.854;2023-04-03T08:09:18;5.50;99.90
18225;DHT22;9237;48.590;8.854;2023-04-03T08:11:45;5.30;99.90
18225;DHT22;9237;48.590;8.854;2023-04-03T08:14:12;5.50;99.90
18225;DHT22;9237;48.590;8.854;2023-04-03T08:16:43;6.00;99.90
18225;DHT22;9237;48.590;8.854;2023-04-03T08:19:10;6.80;99.90
18225;DHT22;9237;48.590;8.854;2023-04-03T08:21:39;6.70;98.70
18225;DHT22;9237;48.590;8.854;2023-04-03T08:24:07;5.80;99.30
18225;DHT22;9237;48.590;8.854;2023-04-03T08:26:35;5.50;99.90
18225;DHT22;9237;48.590;8.854;2023-04-03T08:29:03;5.30;99.90
18225;DHT22;9237;48.590;8.854;2023-04-03T08:31:30;5.60;99.90
18225;DHT22;9237;48.590;8.854;2023-04-03T08:33:57;5.40;99.90
18225;DHT22;9237;48.590;8.854;2023-04-03T08:36:25;5.90;99.90
18225;DHT22;9237;48.590;8.854;2023-04-03T08:38:53;6.10;99.90
18225;DHT22;9237;48.590;8.854;2023-04-03T08:41:27;6.20;99.70
18225;DHT22;9237;48.590;8.854;2023-04-03T08:44:02;6.00;99.90
18225;DHT22;9237;48.590;8.854;2023-04-03T08:46:40;6.10;99.30
18225;DHT22;9237;48.590;8.854;2023-04-03T08:49:14;5.70;99.10
18225;DHT22;9237;48.590;8.854;2023-04-03T08:51:47;6.20;99.80
18225;DHT22;9237;48.590;8.854;2023-04-03T08:54:24;6.40;98.30
18225;DHT22;9237;48.590;8.854;2023-04-03T08:56:52;6.50;99.00
18225;DHT22;9237;48.590;8.854;2023-04-03T08:59:26;6.30;98.20
18225;DHT22;9237;48.590;8.854;2023-04-03T09:01:54;5.80;97.80
18225;DHT22;9237;48.590;8.854;2023-04-03T09:04:22;6.00;98.80
18225;DHT22;9237;48.590;8.854;2023-04-03T09:06:54;5.70;97.70
18225;DHT22;9237;48.590;8.854;2023-04-03T09:09:31;5.90;98.70
18225;DHT22;9237;48.590;8.854;2023-04-03T09:12:04;6.30;98.90
18225;DHT22;9237;48.590;8.854;2023-04-03T09:14:39;5.90;94.50
18225;DHT22;9237;48.590;8.854;2023-04-03T09:17:14;5.70;95.50
18225;DHT22;9237;48.590;8.854;2023-04-03T09:19:47;5.60;96.40
18225;DHT22;9237;48.590;8.854;2023-04-03T09:22:18;5.50;97.70
18225;DHT22;9237;48.590;8.854;2023-04-03T09:24:46;5.40;98.10
18225;DHT22;9237;48.590;8.854;2023-04-03T09:27:13;5.50;98.40
18225;DHT22;9237;48.590;8.854;2023-04-03T09:29:43;5.70;97.60
18225;DHT22;9237;48.590;8.854;2023-04-03T09:32:25;5.80;97.60
18225;DHT22;9237;48.590;8.854;2023-04-03T09:34:53;6.30;96.90
18225;DHT22;9237;48.590;8.854;2023-04-03T09:37:39;5.90;96.30
18225;DHT22;9237;48.590;8.854;2023-04-03T09:40:31;6.20;95.80
18225;DHT22;9237;48.590;8.854;2023-04-03T09:43:02;5.90;95.20
18225;DHT22;9237;48.590;8.854;2023-04-03T09:45:32;5.90;95.80
18225;DHT22;9237;48.590;8.854;2023-04-03T09:48:07;5.90;96.80
18225;DHT22;9237;48.590;8.854;2023-04-03T09:50:36;5.40;95.40
18225;DHT22;9237;48.590;8.854;2023-04-03T09:53:07;5.60;97.10
18225;DHT22;9237;48.590;8.854;2023-04-03T09:55:42;5.90;97.10
18225;DHT22;9237;48.590;8.854;2023-04-03T09:58:25;5.90;95.80
18225;DHT22;9237;48.590;8.854;2023-04-03T10:00:58;6.00;95.70
18225;DHT22;9237;48.590;8.854;2023-04-03T10:03:28;6.40;95.80
18225;DHT22;9237;48.590;8.854;2023-04-03T10:05:55;6.90;95.00
18225;DHT22;9237;48.590;8.854;2023-04-03T10:08:26;6.60;94.80
18225;DHT22;9237;48.590;8.854;2023-04-03T10:11:11;6.60;94.10
18225;DHT22;9237;48.590;8.854;2023-04-03T10:13:55;6.60;94.60
18225;DHT22;9237;48.590;8.854;2023-04-03T10:16:29;6.70;95.20
18225;DHT22;9237;48.590;8.854;2023-04-03T10:19:29;6.70;95.90
18225;DHT22;9237;48.590;8.854;2023-04-03T10:21:59;6.20;95.90
18225;DHT22;9237;48.590;8.854;2023-04-03T10:24:34;6.10;95.30
18225;DHT22;9237;48.590;8.854;2023-04-03T10:27:06;5.80;95.60
18225;DHT22;9237;48.590;8.854;2023-04-03T10:29:39;5.60;96.70
18225;DHT22;9237;48.590;8.854;2023-04-03T10:32:40;5.70;97.20
18225;DHT22;9237;48.590;8.854;2023-04-03T10:35:16;5.90;96.60
18225;DHT22;9237;48.590;8.854;2023-04-03T10:37:54;6.10;96.70
18225;DHT22;9237;48.590;8.854;2023-04-03T10:40:29;6.50;95.70
18225;DHT22;9237;48.590;8.854;2023-04-03T10:43:01;6.70;94.90
18225;DHT22;9237;48.590;8.854;2023-04-03T10:45:31;7.00;94.00
18225;DHT22;9237;48.590;8.854;2023-04-03T10:48:07;6.70;92.80
18225;DHT22;9237;48.590;8.854;2023-04-03T10:50:42;6.40;92.80
18225;DHT22;9237;48.590;8.854;2023-04-03T10:53:19;6.10;93.00
18225;DHT22;9237;48.590;8.854;2023-04-03T10:55:53;6.20;94.60
18225;DHT22;9237;48.590;8.854;2023-04-03T10:58:26;6.20;92.90
18225;DHT22;9237;48.590;8.854;2023-04-03T11:00:57;6.10;93.90
18225;DHT22;9237;48.590;8.854;2023-04-03T11:03:31;6.30;94.10
18225;DHT22;9237;48.590;8.854;2023-04-03T11:06:02;6.10;92.30
18225;DHT22;9237;48.590;8.854;2023-04-03T11:08:35;6.00;92.80
18225;DHT22;9237;48.590;8.854;2023-04-03T11:11:06;5.80;92.10
18225;DHT22;9237;48.590;8.854;2023-04-03T11:13:40;5.80;92.40
18225;DHT22;9237;48.590;8.854;2023-04-03T11:16:13;6.20;93.30
18225;DHT22;9237;48.590;8.854;2023-04-03T11:18:48;6.00;94.00
18225;DHT22;9237;48.590;8.854;2023-04-03T11:21:19;6.20;93.70
18225;DHT22;9237;48.590;8.854;2023-04-03T11:23:47;6.10;94.10
18225;DHT22;9237;48.590;8.854;2023-04-03T11:26:16;5.80;94.00
18225;DHT22;9237;48.590;8.854;2023-04-03T11:28:44;5.70;94.60
18225;DHT22;9237;48.590;8.854;2023-04-03T11:31:29;5.90;94.50
18225;DHT22;9237;48.590;8.854;2023-04-03T11:34:11;6.00;94.30
18225;DHT22;9237;48.590;8.854;2023-04-03T11:36:44;6.70;93.50
18225;DHT22;9237;48.590;8.854;2023-04-03T11:39:20;6.50;92.70
18225;DHT22;9237;48.590;8.854;2023-04-03T11:41:49;6.30;91.80
18225;DHT22;9237;48.590;8.854;2023-04-03T11:44:30;6.80;91.40
18225;DHT22;9237;48.590;8.854;2023-04-03T11:47:00;6.70;90.30
18225;DHT22;9237;48.590;8.854;2023-04-03T11:49:51;6.60;91.90
18225;DHT22;9237;48.590;8.854;2023-04-03T11:52:55;6.70;91.60
18225;DHT22;9237;48.590;8.854;2023-04-03T11:55:53;6.90;92.30
18225;DHT22;9237;48.590;8.854;2023-04-03T11:58:21;6.70;91.90
18225;DHT22;9237;48.590;8.854;2023-04-03T12:00:57;6.30;92.20
18225;DHT22;9237;48.590;8.854;2023-04-03T12:03:32;6.50;92.60
18225;DHT22;9237;48.590;8.854;2023-04-03T12:09:01;6.90;92.50
18225;DHT22;9237;48.590;8.854;2023-04-03T12:11:30;7.00;91.80
18225;DHT22;9237;48.590;8.854;2023-04-03T12:14:04;6.90;92.10
18225;DHT22;9237;48.590;8.854;2023-04-03T12:16:33;6.90;92.10
18225;DHT22;9237;48.590;8.854;2023-04-03T12:19:29;6.70;92.10
18225;DHT22;9237;48.590;8.854;2023-04-03T12:22:23;6.50;92.40
18225;DHT22;9237;48.590;8.854;2023-04-03T12:24:52;6.40;92.70
18225;DHT22;9237;48.590;8.854;2023-04-03T12:27:32;6.40;91.70
18225;DHT22;9237;48.590;8.854;2023-04-03T12:30:05;6.60;92.10
18225;DHT22;9237;48.590;8.854;2023-04-03T12:32:46;6.70;91.70
18225;DHT22;9237;48.590;8.854;2023-04-03T12:35:20;6.40;90.90
18225;DHT22;9237;48.590;8.854;2023-04-03T12:41:11;6.50;91.10
18225;DHT22;9237;48.590;8.854;2023-04-03T12:43:48;6.50;90.90
18225;DHT22;9237;48.590;8.854;2023-04-03T12:46:18;6.70;90.20
18225;DHT22;9237;48.590;8.854;2023-04-03T12:48:50;6.70;89.00
18225;DHT22;9237;48.590;8.854;2023-04-03T12:51:20;7.20;90.00
18225;DHT22;9237;48.590;8.854;2023-04-03T12:53:49;7.20;90.00
18225;DHT22;9237;48.590;8.854;2023-04-03T12:56:24;7.00;88.80
18225;DHT22;9237;48.590;8.854;2023-04-03T12:58:53;7.00;87.70
18225;DHT22;9237;48.590;8.854;2023-04-03T13:01:21;7.00;87.10
18225;DHT22;9237;48.590;8.854;2023-04-03T13:03:52;6.90;87.40
18225;DHT22;9237;48.590;8.854;2023-04-03T13:06:22;6.20;89.10
18225;DHT22;9237;48.590;8.854;2023-04-03T13:08:50;6.20;90.60
18225;DHT22;9237;48.590;8.854;2023-04-03T13:11:19;6.30;90.50
18225;DHT22;9237;48.590;8.854;2023-04-03T13:13:59;6.10;90.40
18225;DHT22;9237;48.590;8.854;2023-04-03T13:16:26;6.00;90.30
18225;DHT22;9237;48.590;8.854;2023-04-03T13:18:54;5.90;90.70
18225;DHT22;9237;48.590;8.854;2023-04-03T13:21:24;6.00;90.50
18225;DHT22;9237;48.590;8.854;2023-04-03T13:23:54;6.10;90.40
18225;DHT22;9237;48.590;8.854;2023-04-03T13:26:23;6.00;90.30
18225;DHT22;9237;48.590;8.854;2023-04-03T13:28:52;6.20;90.40
18225;DHT22;9237;48.590;8.854;2023-04-03T13:31:26;6.30;89.80
18225;DHT22;9237;48.590;8.854;2023-04-03T13:33:57;6.50;88.90
18225;DHT22;9237;48.590;8.854;2023-04-03T13:36:27;7.30;88.30
18225;DHT22;9237;48.590;8.854;2023-04-03T13:38:59;6.90;86.80
18225;DHT22;9237;48.590;8.854;2023-04-03T13:41:30;7.40;87.40
18225;DHT22;9237;48.590;8.854;2023-04-03T13:43:57;7.20;87.40
18225;DHT22;9237;48.590;8.854;2023-04-03T13:46:42;7.00;87.10
18225;DHT22;9237;48.590;8.854;2023-04-03T13:49:19;6.80;86.60
18225;DHT22;9237;48.590;8.854;2023-04-03T13:51:46;6.70;86.60
18225;DHT22;9237;48.590;8.854;2023-04-03T13:54:18;6.80;87.90
18225;DHT22;9237;48.590;8.854;2023-04-03T13:56:45;6.30;86.80
18225;DHT22;9237;48.590;8.854;2023-04-03T13:59:25;6.00;88.10
18225;DHT22;9237;48.590;8.854;2023-04-03T14:02:10;5.80;88.60
18225;DHT22;9237;48.590;8.854;2023-04-03T14:04:47;6.00;89.10
18225;DHT22;9237;48.590;8.854;2023-04-03T14:07:15;6.40;90.70
18225;DHT22;9237;48.590;8.854;2023-04-03T14:09:43;6.80;89.10
18225;DHT22;9237;48.590;8.854;2023-04-03T14:12:14;7.10;87.00
18225;DHT22;9237;48.590;8.854;2023-04-03T14:14:42;7.00;84.80
18225;DHT22;9237;48.590;8.854;2023-04-03T14:17:15;7.00;86.40
18225;DHT22;9237;48.590;8.854;2023-04-03T14:19:42;7.10;86.20
18225;DHT22;9237;48.590;8.854;2023-04-03T14:22:15;7.00;85.20
18225;DHT22;9237;48.590;8.854;2023-04-03T14:24:43;6.90;83.70
18225;DHT22;9237;48.590;8.854;2023-04-03T14:27:16;7.10;84.60
18225;DHT22;9237;48.590;8.854;2023-04-03T14:29:43;6.90;82.30
18225;DHT22;9237;48.590;8.854;2023-04-03T14:32:13;6.50;84.80
18225;DHT22;9237;48.590;8.854;2023-04-03T14:34:40;6.50;83.50
18225;DHT22;9237;48.590;8.854;2023-04-03T14:37:10;6.50;84.00
18225;DHT22;9237;48.590;8.854;2023-04-03T14:39:37;6.60;85.10
18225;DHT22;9237;48.590;8.854;2023-04-03T14:42:03;6.50;85.20
18225;DHT22;9237;48.590;8.854;2023-04-03T14:44:30;6.50;86.20
18225;DHT22;9237;48.590;8.854;2023-04-03T14:46:57;6.30;84.90
18225;DHT22;9237;48.590;8.854;2023-04-03T14:49:27;6.20;84.40
18225;DHT22;9237;48.590;8.854;2023-04-03T14:51:55;6.10;85.00
18225;DHT22;9237;48.590;8.854;2023-04-03T14:54:23;6.20;86.10
18225;DHT22;9237;48.590;8.854;2023-04-03T14:56:53;6.30;84.80
18225;DHT22;9237;48.590;8.854;2023-04-03T14:59:21;6.50;83.70
18225;DHT22;9237;48.590;8.854;2023-04-03T15:01:49;6.50;85.10
18225;DHT22;9237;48.590;8.854;2023-04-03T15:04:17;6.60;82.60
18225;DHT22;9237;48.590;8.854;2023-04-03T15:06:47;6.70;82.90
18225;DHT22;9237;48.590;8.854;2023-04-03T15:09:20;6.50;81.70
18225;DHT22;9237;48.590;8.854;2023-04-03T15:11:47;6.70;83.10
18225;DHT22;9237;48.590;8.854;2023-04-03T15:14:14;6.50;83.50
18225;DHT22;9237;48.590;8.854;2023-04-03T15:16:41;6.70;85.20
18225;DHT22;9237;48.590;8.854;2023-04-03T15:19:08;6.90;83.20
18225;DHT22;9237;48.590;8.854;2023-04-03T15:21:35;7.00;82.70
18225;DHT22;9237;48.590;8.854;2023-04-03T15:24:03;6.90;80.80
18225;DHT22;9237;48.590;8.854;2023-04-03T15:26:31;7.30;82.20
18225;DHT22;9237;48.590;8.854;2023-04-03T15:28:58;7.50;80.80
18225;DHT22;9237;48.590;8.854;2023-04-03T15:31:25;7.60;81.30
18225;DHT22;9237;48.590;8.854;2023-04-03T15:33:52;7.40;81.80
18225;DHT22;9237;48.590;8.854;2023-04-03T15:36:19;7.20;82.50
18225;DHT22;9237;48.590;8.854;2023-04-03T15:38:45;7.10;83.80
18225;DHT22;9237;48.590;8.854;2023-04-03T15:41:13;6.80;83.00
18225;DHT22;9237;48.590;8.854;2023-04-03T15:43:40;6.40;81.20
18225;DHT22;9237;48.590;8.854;2023-04-03T15:46:07;6.30;82.10
18225;DHT22;9237;48.590;8.854;2023-04-03T15:48:35;6.20;83.70
18225;DHT22;9237;48.590;8.854;2023-04-03T15:51:02;6.20;83.00
18225;DHT22;9237;48.590;8.854;2023-04-03T15:53:29;6.10;81.70
18225;DHT22;9237;48.590;8.854;2023-04-03T15:55:56;6.80;82.40
18225;DHT22;9237;48.590;8.854;2023-04-03T15:58:24;8.00;78.70
18225;DHT22;9237;48.590;8.854;2023-04-03T16:00:51;7.80;76.80
18225;DHT22;9237;48.590;8.854;2023-04-03T16:03:19;7.30;77.30
18225;DHT22;9237;48.590;8.854;2023-04-03T16:05:47;7.10;79.20
18225;DHT22;9237;48.590;8.854;2023-04-03T16:08:14;6.90;80.30
18225;DHT22;9237;48.590;8.854;2023-04-03T16:10:43;6.70;81.00
18225;DHT22;9237;48.590;8.854;2023-04-03T16:13:12;6.60;81.70
18225;DHT22;9237;48.590;8.854;2023-04-03T16:15:40;6.30;82.00
18225;DHT22;9237;48.590;8.854;2023-04-03T16:18:08;6.30;82.90
18225;DHT22;9237;48.590;8.854;2023-04-03T16:20:35;6.30;82.70
18225;DHT22;9237;48.590;8.854;2023-04-03T16:23:02;6.20;82.10
18225;DHT22;9237;48.590;8.854;2023-04-03T16:25:29;6.30;82.90